sensor_id;sensor_type;location;lat;lon;timestamp;pressure;altitude;pressure_sealevel;temperature;humidity
56737;BME280;42618;51.226;4.910;2023-04-27T00:00:58;49655.25;;;-146.94;73.94
56737;BME280;42618;51.226;4.910;2023-04-27T00:03:25;49611.38;;;-146.94;73.90
56737;BME280;42618;51.226;4.910;2023-04-27T00:05:53;49655.25;;;-146.94;74.23
56737;BME280;42618;51.226;4.910;2023-04-27T00:08:19;49669.19;;;-146.94;74.13
56737;BME280;42618;51.226;4.910;2023-04-27T00:10:46;49667.19;;;-146.94;74.62
56737;BME280;42618;51.226;4.910;2023-04-27T00:13:13;49713.06;;;-146.94;74.30
56737;BME280;42618;51.226;4.910;2023-04-27T00:15:40;49675.19;;;-146.94;74.27
56737;BME280;42618;51.226;4.910;2023-04-27T00:18:06;49673.19;;;-146.94;74.49
56737;BME280;42618;51.226;4.910;2023-04-27T00:20:33;49685.13;;;-146.94;74.61
56737;BME280;42618;51.226;4.910;2023-04-27T00:23:00;49663.22;;;-146.94;74.50
56737;BME280;42618;51.226;4.910;2023-04-27T00:25:27;49711.06;;;-146.94;75.07
56737;BME280;42618;51.226;4.910;2023-04-27T00:27:53;49677.16;;;-146.94;75.14
56737;BME280;42618;51.226;4.910;2023-04-27T00:30:20;49655.25;;;-146.94;75.45
56737;BME280;42618;51.226;4.910;2023-04-27T00:32:47;49679.16;;;-146.94;75.30
56737;BME280;42618;51.226;4.910;2023-04-27T00:35:15;49655.25;;;-146.94;75.37
56737;BME280;42618;51.226;4.910;2023-04-27T00:37:42;49707.06;;;-146.94;75.37
56737;BME280;42618;51.226;4.910;2023-04-27T00:40:09;49715.03;;;-146.94;75.86
56737;BME280;42618;51.226;4.910;2023-04-27T00:42:36;49661.22;;;-146.94;75.66
56737;BME280;42618;51.226;4.910;2023-04-27T00:45:03;49679.16;;;-146.94;75.30
56737;BME280;42618;51.226;4.910;2023-04-27T00:47:31;49681.16;;;-146.94;75.25
56737;BME280;42618;51.226;4.910;2023-04-27T00:49:59;49675.19;;;-146.94;75.69
56737;BME280;42618;51.226;4.910;2023-04-27T00:52:26;49687.13;;;-146.94;76.31
56737;BME280;42618;51.226;4.910;2023-04-27T00:54:53;49647.25;;;-146.94;76.29
56737;BME280;42618;51.226;4.910;2023-04-27T00:57:22;49687.13;;;-146.94;76.64
56737;BME280;42618;51.226;4.910;2023-04-27T00:59:49;49687.13;;;-146.94;76.13
56737;BME280;42618;51.226;4.910;2023-04-27T01:02:16;49671.19;;;-146.94;76.21
56737;BME280;42618;51.226;4.910;2023-04-27T01:04:44;49683.16;;;-146.94;76.26
56737;BME280;42618;51.226;4.910;2023-04-27T01:07:11;49691.13;;;-146.94;76.62
56737;BME280;42618;51.226;4.910;2023-04-27T01:09:37;49697.09;;;-146.94;77.30
56737;BME280;42618;51.226;4.910;2023-04-27T01:12:04;49681.16;;;-146.94;77.42
56737;BME280;42618;51.226;4.910;2023-04-27T01:14:31;49659.22;;;-146.94;77.58
56737;BME280;42618;51.226;4.910;2023-04-27T01:16:58;49705.06;;;-146.94;77.73
56737;BME280;42618;51.226;4.910;2023-04-27T01:19:25;49691.13;;;-146.94;78.17
56737;BME280;42618;51.226;4.910;2023-04-27T01:21:52;49679.16;;;-146.94;78.65
56737;BME280;42618;51.226;4.910;2023-04-27T01:24:19;49675.19;;;-146.94;78.88
56737;BME280;42618;51.226;4.910;2023-04-27T01:26:46;49645.28;;;-146.94;78.77
56737;BME280;42618;51.226;4.910;2023-04-27T01:29:12;49701.09;;;-146.94;78.85
56737;BME280;42618;51.226;4.910;2023-04-27T01:31:40;49693.13;;;-146.94;79.11
56737;BME280;42618;51.226;4.910;2023-04-27T01:34:07;49687.13;;;-146.94;79.08
56737;BME280;42618;51.226;4.910;2023-04-27T01:36:34;49683.16;;;-146.94;79.47
56737;BME280;42618;51.226;4.910;2023-04-27T01:39:01;49679.16;;;-146.94;79.52
56737;BME280;42618;51.226;4.910;2023-04-27T01:41:29;49687.13;;;-146.94;79.94
56737;BME280;42618;51.226;4.910;2023-04-27T01:43:55;49681.16;;;-146.94;79.76
56737;BME280;42618;51.226;4.910;2023-04-27T01:46:22;49703.09;;;-146.94;79.27
56737;BME280;42618;51.226;4.910;2023-04-27T01:48:49;49699.09;;;-146.94;79.86
56737;BME280;42618;51.226;4.910;2023-04-27T01:51:16;49715.03;;;-146.94;79.52
56737;BME280;42618;51.226;4.910;2023-04-27T01:53:43;49689.13;;;-146.94;79.41
56737;BME280;42618;51.226;4.910;2023-04-27T01:56:10;49687.13;;;-146.94;79.44
56737;BME280;42618;51.226;4.910;2023-04-27T01:58:37;49707.06;;;-146.94;79.54
56737;BME280;42618;51.226;4.910;2023-04-27T02:01:04;49721.03;;;-146.94;79.89
56737;BME280;42618;51.226;4.910;2023-04-27T02:03:31;49683.16;;;-146.94;79.76
56737;BME280;42618;51.226;4.910;2023-04-27T02:05:58;49671.19;;;-146.94;79.55
56737;BME280;42618;51.226;4.910;2023-04-27T02:08:24;49725.00;;;-146.94;79.31
56737;BME280;42618;51.226;4.910;2023-04-27T02:10:51;49681.16;;;-146.94;79.15
56737;BME280;42618;51.226;4.910;2023-04-27T02:13:18;49691.13;;;-146.94;79.42
56737;BME280;42618;51.226;4.910;2023-04-27T02:15:45;49715.03;;;-146.94;79.19
56737;BME280;42618;51.226;4.910;2023-04-27T02:18:11;49709.06;;;-146.94;79.60
56737;BME280;42618;51.226;4.910;2023-04-27T02:20:39;49711.06;;;-146.94;79.18
56737;BME280;42618;51.226;4.910;2023-04-27T02:23:06;49655.25;;;-146.94;79.33
56737;BME280;42618;51.226;4.910;2023-04-27T02:25:35;49675.19;;;-146.94;79.35
56737;BME280;42618;51.226;4.910;2023-04-27T02:28:02;49713.06;;;-146.94;79.37
56737;BME280;42618;51.226;4.910;2023-04-27T02:30:30;49693.13;;;-146.94;79.32
56737;BME280;42618;51.226;4.910;2023-04-27T02:32:58;49738.97;;;-146.94;79.68
56737;BME280;42618;51.226;4.910;2023-04-27T02:35:26;49667.19;;;-146.94;79.66
56737;BME280;42618;51.226;4.910;2023-04-27T02:37:53;49691.13;;;-146.94;80.00
56737;BME280;42618;51.226;4.910;2023-04-27T02:40:19;49695.09;;;-146.94;79.62
56737;BME280;42618;51.226;4.910;2023-04-27T02:42:46;49709.06;;;-146.94;79.59
56737;BME280;42618;51.226;4.910;2023-04-27T02:45:13;49683.16;;;-146.94;80.77
56737;BME280;42618;51.226;4.910;2023-04-27T02:47:40;49675.19;;;-146.94;80.38
56737;BME280;42618;51.226;4.910;2023-04-27T02:50:07;49703.09;;;-146.94;80.90
56737;BME280;42618;51.226;4.910;2023-04-27T02:52:34;49697.09;;;-146.94;81.15
56737;BME280;42618;51.226;4.910;2023-04-27T02:55:01;49727.00;;;-146.94;80.70
56737;BME280;42618;51.226;4.910;2023-04-27T02:57:28;49675.19;;;-146.94;80.68
56737;BME280;42618;51.226;4.910;2023-04-27T02:59:55;49723.03;;;-146.94;80.76
56737;BME280;42618;51.226;4.910;2023-04-27T03:02:21;49709.06;;;-146.94;81.08
56737;BME280;42618;51.226;4.910;2023-04-27T03:04:52;49707.06;;;-146.94;80.85
56737;BME280;42618;51.226;4.910;2023-04-27T03:07:21;49711.06;;;-146.94;81.23
56737;BME280;42618;51.226;4.910;2023-04-27T03:09:48;49707.06;;;-146.94;81.35
56737;BME280;42618;51.226;4.910;2023-04-27T03:12:14;49709.06;;;-146.94;81.96
56737;BME280;42618;51.226;4.910;2023-04-27T03:14:41;49715.03;;;-146.94;81.56
56737;BME280;42618;51.226;4.910;2023-04-27T03:17:08;49703.09;;;-146.94;81.86
56737;BME280;42618;51.226;4.910;2023-04-27T03:19:35;49679.16;;;-146.94;81.65
56737;BME280;42618;51.226;4.910;2023-04-27T03:22:02;49707.06;;;-146.94;82.06
56737;BME280;42618;51.226;4.910;2023-04-27T03:24:29;49659.22;;;-146.94;81.66
56737;BME280;42618;51.226;4.910;2023-04-27T03:26:56;49695.09;;;-146.94;81.72
56737;BME280;42618;51.226;4.910;2023-04-27T03:29:23;49681.16;;;-146.94;82.35
56737;BME280;42618;51.226;4.910;2023-04-27T03:31:49;49717.03;;;-146.94;82.69
56737;BME280;42618;51.226;4.910;2023-04-27T03:34:16;49703.09;;;-146.94;82.11
56737;BME280;42618;51.226;4.910;2023-04-27T03:36:43;49709.06;;;-146.94;82.27
56737;BME280;42618;51.226;4.910;2023-04-27T03:39:10;49691.13;;;-146.94;82.67
56737;BME280;42618;51.226;4.910;2023-04-27T03:41:37;49703.09;;;-146.94;82.56
56737;BME280;42618;51.226;4.910;2023-04-27T03:44:04;49697.09;;;-146.94;82.84
56737;BME280;42618;51.226;4.910;2023-04-27T03:46:32;49699.09;;;-146.94;82.74
56737;BME280;42618;51.226;4.910;2023-04-27T03:48:59;49635.31;;;-146.94;83.20
56737;BME280;42618;51.226;4.910;2023-04-27T03:51:26;49687.13;;;-146.94;83.02
56737;BME280;42618;51.226;4.910;2023-04-27T03:53:53;49701.09;;;-146.94;83.09
56737;BME280;42618;51.226;4.910;2023-04-27T03:56:20;49695.09;;;-146.94;83.19
56737;BME280;42618;51.226;4.910;2023-04-27T03:58:47;49703.09;;;-146.94;83.52
56737;BME280;42618;51.226;4.910;2023-04-27T04:01:18;49697.09;;;-146.94;84.02
56737;BME280;42618;51.226;4.910;2023-04-27T04:03:47;49673.19;;;-146.94;83.73
56737;BME280;42618;51.226;4.910;2023-04-27T04:06:14;49675.19;;;-146.94;83.90
56737;BME280;42618;51.226;4.910;2023-04-27T04:08:40;49707.06;;;-146.94;83.90
56737;BME280;42618;51.226;4.910;2023-04-27T04:11:07;49685.13;;;-146.94;83.69
56737;BME280;42618;51.226;4.910;2023-04-27T04:13:35;49687.13;;;-146.94;83.69
56737;BME280;42618;51.226;4.910;2023-04-27T04:16:07;49705.06;;;-146.94;83.47
56737;BME280;42618;51.226;4.910;2023-04-27T04:18:35;49681.16;;;-146.94;83.57
56737;BME280;42618;51.226;4.910;2023-04-27T04:21:03;49635.31;;;-146.94;84.06
56737;BME280;42618;51.226;4.910;2023-04-27T04:23:30;49705.06;;;-146.94;84.16
56737;BME280;42618;51.226;4.910;2023-04-27T04:25:58;49727.00;;;-146.94;84.35
56737;BME280;42618;51.226;4.910;2023-04-27T04:28:29;49707.06;;;-146.94;84.46
56737;BME280;42618;51.226;4.910;2023-04-27T04:30:56;49715.03;;;-146.94;83.98
56737;BME280;42618;51.226;4.910;2023-04-27T04:33:24;49717.03;;;-146.94;83.74
56737;BME280;42618;51.226;4.910;2023-04-27T04:35:51;49687.13;;;-146.94;83.80
56737;BME280;42618;51.226;4.910;2023-04-27T04:38:19;49715.03;;;-146.94;83.95
56737;BME280;42618;51.226;4.910;2023-04-27T04:40:47;49734.97;;;-146.94;83.57
56737;BME280;42618;51.226;4.910;2023-04-27T04:43:14;49738.97;;;-146.94;83.76
56737;BME280;42618;51.226;4.910;2023-04-27T04:45:40;49729.00;;;-146.94;84.00
56737;BME280;42618;51.226;4.910;2023-04-27T04:48:10;49695.09;;;-146.94;84.28
56737;BME280;42618;51.226;4.910;2023-04-27T04:50:38;49713.06;;;-146.94;84.18
56737;BME280;42618;51.226;4.910;2023-04-27T04:53:04;49731.00;;;-146.94;84.38
56737;BME280;42618;51.226;4.910;2023-04-27T04:55:32;49721.03;;;-146.94;84.58
56737;BME280;42618;51.226;4.910;2023-04-27T04:57:59;49679.16;;;-146.94;84.20
56737;BME280;42618;51.226;4.910;2023-04-27T05:00:26;49727.00;;;-146.94;84.12
56737;BME280;42618;51.226;4.910;2023-04-27T05:02:54;49709.06;;;-146.94;83.92
56737;BME280;42618;51.226;4.910;2023-04-27T05:05:21;49707.06;;;-146.94;83.35
56737;BME280;42618;51.226;4.910;2023-04-27T05:07:48;49663.22;;;-146.94;83.67
56737;BME280;42618;51.226;4.910;2023-04-27T05:10:14;49731.00;;;-146.94;83.70
56737;BME280;42618;51.226;4.910;2023-04-27T05:12:41;49707.06;;;-146.94;83.82
56737;BME280;42618;51.226;4.910;2023-04-27T05:15:10;49691.13;;;-146.94;83.51
56737;BME280;42618;51.226;4.910;2023-04-27T05:17:37;49701.09;;;-146.94;83.86
56737;BME280;42618;51.226;4.910;2023-04-27T05:20:04;49734.97;;;-146.94;83.60
56737;BME280;42618;51.226;4.910;2023-04-27T05:22:31;49705.06;;;-146.94;83.02
56737;BME280;42618;51.226;4.910;2023-04-27T05:24:58;49703.09;;;-146.94;82.85
56737;BME280;42618;51.226;4.910;2023-04-27T05:27:25;49719.03;;;-146.94;83.07
56737;BME280;42618;51.226;4.910;2023-04-27T05:29:51;49703.09;;;-146.94;83.32
56737;BME280;42618;51.226;4.910;2023-04-27T05:32:18;49725.00;;;-146.94;82.98
56737;BME280;42618;51.226;4.910;2023-04-27T05:34:45;49697.09;;;-146.94;82.79
56737;BME280;42618;51.226;4.910;2023-04-27T05:37:15;49699.09;;;-146.94;82.24
56737;BME280;42618;51.226;4.910;2023-04-27T05:39:41;49727.00;;;-146.94;81.03
56737;BME280;42618;51.226;4.910;2023-04-27T05:42:08;49717.03;;;-146.94;81.32
56737;BME280;42618;51.226;4.910;2023-04-27T05:44:35;49695.09;;;-146.94;81.63
56737;BME280;42618;51.226;4.910;2023-04-27T05:47:02;49687.13;;;-146.94;80.99
56737;BME280;42618;51.226;4.910;2023-04-27T05:49:29;49691.13;;;-146.94;79.74
56737;BME280;42618;51.226;4.910;2023-04-27T05:51:56;49695.09;;;-146.94;79.96
56737;BME280;42618;51.226;4.910;2023-04-27T05:54:24;49719.03;;;-146.94;79.66
56737;BME280;42618;51.226;4.910;2023-04-27T05:56:51;49719.03;;;-146.94;79.23
56737;BME280;42618;51.226;4.910;2023-04-27T05:59:18;49733.00;;;-146.94;78.42
56737;BME280;42618;51.226;4.910;2023-04-27T06:01:45;49693.13;;;-146.94;77.99
56737;BME280;42618;51.226;4.910;2023-04-27T06:04:12;49687.13;;;-146.94;77.62
56737;BME280;42618;51.226;4.910;2023-04-27T06:06:39;49667.19;;;-146.94;76.82
56737;BME280;42618;51.226;4.910;2023-04-27T06:09:06;49713.06;;;-146.94;76.08
56737;BME280;42618;51.226;4.910;2023-04-27T06:11:33;49685.13;;;-146.94;76.19
56737;BME280;42618;51.226;4.910;2023-04-27T06:14:00;49671.19;;;-146.94;74.68
56737;BME280;42618;51.226;4.910;2023-04-27T06:16:26;49675.19;;;-146.94;74.23
56737;BME280;42618;51.226;4.910;2023-04-27T06:18:53;49687.13;;;-146.94;74.20
56737;BME280;42618;51.226;4.910;2023-04-27T06:21:20;49679.16;;;-146.94;73.46
56737;BME280;42618;51.226;4.910;2023-04-27T06:23:47;49643.28;;;-146.94;72.75
56737;BME280;42618;51.226;4.910;2023-04-27T06:26:14;49675.19;;;-146.94;72.88
56737;BME280;42618;51.226;4.910;2023-04-27T06:28:41;49669.19;;;-146.94;72.50
56737;BME280;42618;51.226;4.910;2023-04-27T06:31:07;49653.25;;;-146.94;71.71
56737;BME280;42618;51.226;4.910;2023-04-27T06:33:34;49687.13;;;-146.94;71.14
56737;BME280;42618;51.226;4.910;2023-04-27T06:36:01;49693.13;;;-146.94;70.61
56737;BME280;42618;51.226;4.910;2023-04-27T06:38:27;49663.22;;;-146.94;70.01
56737;BME280;42618;51.226;4.910;2023-04-27T06:40:54;49683.16;;;-146.94;70.15
56737;BME280;42618;51.226;4.910;2023-04-27T06:43:21;49683.16;;;-146.94;69.56
56737;BME280;42618;51.226;4.910;2023-04-27T06:45:48;49671.19;;;-146.94;68.89
56737;BME280;42618;51.226;4.910;2023-04-27T06:48:15;49707.06;;;-146.94;69.31
56737;BME280;42618;51.226;4.910;2023-04-27T06:50:42;49647.25;;;-146.94;68.06
56737;BME280;42618;51.226;4.910;2023-04-27T06:53:09;49677.16;;;-146.94;68.00
56737;BME280;42618;51.226;4.910;2023-04-27T06:55:36;49649.25;;;-146.94;67.18
56737;BME280;42618;51.226;4.910;2023-04-27T06:58:03;49627.31;;;-146.94;66.60
56737;BME280;42618;51.226;4.910;2023-04-27T07:00:30;49683.16;;;-146.94;65.07
56737;BME280;42618;51.226;4.910;2023-04-27T07:02:57;49637.28;;;-146.94;64.31
56737;BME280;42618;51.226;4.910;2023-04-27T07:05:24;49691.13;;;-146.94;63.45
56737;BME280;42618;51.226;4.910;2023-04-27T07:07:51;49643.28;;;-146.94;63.63
56737;BME280;42618;51.226;4.910;2023-04-27T07:10:18;49683.16;;;-146.94;63.16
56737;BME280;42618;51.226;4.910;2023-04-27T07:12:45;49651.25;;;-146.94;62.12
56737;BME280;42618;51.226;4.910;2023-04-27T07:15:12;49641.28;;;-146.94;61.48
56737;BME280;42618;51.226;4.910;2023-04-27T07:17:38;49637.28;;;-146.94;60.23
56737;BME280;42618;51.226;4.910;2023-04-27T07:20:06;49643.28;;;-146.94;60.09
56737;BME280;42618;51.226;4.910;2023-04-27T07:22:34;49653.25;;;-146.94;59.21
56737;BME280;42618;51.226;4.910;2023-04-27T07:25:00;49629.31;;;-146.94;59.52
56737;BME280;42618;51.226;4.910;2023-04-27T07:27:27;49613.38;;;-146.94;57.54
56737;BME280;42618;51.226;4.910;2023-04-27T07:29:54;49629.31;;;-146.94;56.42
56737;BME280;42618;51.226;4.910;2023-04-27T07:32:21;49641.28;;;-146.94;56.35
56737;BME280;42618;51.226;4.910;2023-04-27T07:34:48;49631.31;;;-146.94;55.63
56737;BME280;42618;51.226;4.910;2023-04-27T07:37:20;49665.22;;;-146.94;53.36
56737;BME280;42618;51.226;4.910;2023-04-27T07:39:48;49635.31;;;-146.94;53.41
56737;BME280;42618;51.226;4.910;2023-04-27T07:42:18;49671.19;;;-146.94;51.77
56737;BME280;42618;51.226;4.910;2023-04-27T07:44:45;49655.25;;;-146.94;51.09
56737;BME280;42618;51.226;4.910;2023-04-27T07:47:11;49643.28;;;-146.94;50.87
56737;BME280;42618;51.226;4.910;2023-04-27T07:49:38;49645.28;;;-146.94;49.51
56737;BME280;42618;51.226;4.910;2023-04-27T07:52:05;49649.25;;;-146.94;49.78
56737;BME280;42618;51.226;4.910;2023-04-27T07:54:33;49643.28;;;-146.94;49.42
56737;BME280;42618;51.226;4.910;2023-04-27T07:57:00;49653.25;;;-146.94;48.08
56737;BME280;42618;51.226;4.910;2023-04-27T07:59:28;49643.28;;;-146.94;48.30
56737;BME280;42618;51.226;4.910;2023-04-27T08:01:55;49597.44;;;-146.94;46.78
56737;BME280;42618;51.226;4.910;2023-04-27T08:04:42;49633.31;;;-146.94;46.99
56737;BME280;42618;51.226;4.910;2023-04-27T08:07:09;49603.41;;;-146.94;46.28
56737;BME280;42618;51.226;4.910;2023-04-27T08:09:36;49611.38;;;-146.94;45.42
56737;BME280;42618;51.226;4.910;2023-04-27T08:12:03;49591.44;;;-146.94;45.11
56737;BME280;42618;51.226;4.910;2023-04-27T08:14:33;49617.38;;;-146.94;44.37
56737;BME280;42618;51.226;4.910;2023-04-27T08:16:59;49619.34;;;-146.94;44.18
56737;BME280;42618;51.226;4.910;2023-04-27T08:19:26;49597.44;;;-146.94;43.04
56737;BME280;42618;51.226;4.910;2023-04-27T08:21:53;49647.25;;;-146.94;43.71
56737;BME280;42618;51.226;4.910;2023-04-27T08:24:20;49611.38;;;-146.94;42.11
56737;BME280;42618;51.226;4.910;2023-04-27T08:26:46;49639.28;;;-146.94;42.50
56737;BME280;42618;51.226;4.910;2023-04-27T08:29:13;49607.41;;;-146.94;42.37
56737;BME280;42618;51.226;4.910;2023-04-27T08:31:53;49611.38;;;-146.94;41.91
56737;BME280;42618;51.226;4.910;2023-04-27T08:34:22;49613.38;;;-146.94;42.26
56737;BME280;42618;51.226;4.910;2023-04-27T08:36:49;49615.38;;;-146.94;41.35
56737;BME280;42618;51.226;4.910;2023-04-27T08:39:16;49627.31;;;-146.94;41.93
56737;BME280;42618;51.226;4.910;2023-04-27T08:41:44;49603.41;;;-146.94;40.28
56737;BME280;42618;51.226;4.910;2023-04-27T08:44:12;49611.38;;;-146.94;41.05
56737;BME280;42618;51.226;4.910;2023-04-27T08:46:38;49633.31;;;-146.94;40.10
56737;BME280;42618;51.226;4.910;2023-04-27T08:49:05;49617.38;;;-146.94;39.86
56737;BME280;42618;51.226;4.910;2023-04-27T08:51:35;49593.44;;;-146.94;38.90
56737;BME280;42618;51.226;4.910;2023-04-27T08:54:02;49619.34;;;-146.94;39.20
56737;BME280;42618;51.226;4.910;2023-04-27T08:56:30;49581.47;;;-146.94;39.49
56737;BME280;42618;51.226;4.910;2023-04-27T08:58:57;49595.44;;;-146.94;38.68
56737;BME280;42618;51.226;4.910;2023-04-27T09:01:24;49601.41;;;-146.94;38.74
56737;BME280;42618;51.226;4.910;2023-04-27T09:04:00;49593.44;;;-146.94;38.46
56737;BME280;42618;51.226;4.910;2023-04-27T09:06:29;49597.44;;;-146.94;38.62
56737;BME280;42618;51.226;4.910;2023-04-27T09:08:57;49585.47;;;-146.94;38.47
56737;BME280;42618;51.226;4.910;2023-04-27T09:11:31;49617.38;;;-146.94;38.54
56737;BME280;42618;51.226;4.910;2023-04-27T09:14:01;49599.41;;;-146.94;39.36
56737;BME280;42618;51.226;4.910;2023-04-27T09:16:29;49561.53;;;-146.94;38.34
56737;BME280;42618;51.226;4.910;2023-04-27T09:18:57;49603.41;;;-146.94;37.24
56737;BME280;42618;51.226;4.910;2023-04-27T09:21:28;49599.41;;;-146.94;37.40
56737;BME280;42618;51.226;4.910;2023-04-27T09:23:56;49617.38;;;-146.94;37.45
56737;BME280;42618;51.226;4.910;2023-04-27T09:26:25;49595.44;;;-146.94;37.56
56737;BME280;42618;51.226;4.910;2023-04-27T09:28:54;49589.44;;;-146.94;37.40
56737;BME280;42618;51.226;4.910;2023-04-27T09:31:31;49627.31;;;-146.94;35.76
56737;BME280;42618;51.226;4.910;2023-04-27T09:33:58;49595.44;;;-146.94;35.38
56737;BME280;42618;51.226;4.910;2023-04-27T09:36:25;49597.44;;;-146.94;35.96
56737;BME280;42618;51.226;4.910;2023-04-27T09:38:52;49563.53;;;-146.94;35.79
56737;BME280;42618;51.226;4.910;2023-04-27T09:41:19;49589.44;;;-146.94;36.36
56737;BME280;42618;51.226;4.910;2023-04-27T09:43:47;49587.47;;;-146.94;35.52
56737;BME280;42618;51.226;4.910;2023-04-27T09:46:14;49631.31;;;-146.94;35.48
56737;BME280;42618;51.226;4.910;2023-04-27T09:48:41;49551.56;;;-146.94;35.56
56737;BME280;42618;51.226;4.910;2023-04-27T09:51:08;49559.56;;;-146.94;35.82
56737;BME280;42618;51.226;4.910;2023-04-27T09:53:39;49597.44;;;-146.94;35.83
56737;BME280;42618;51.226;4.910;2023-04-27T10:01:38;49561.53;;;-146.94;34.42
56737;BME280;42618;51.226;4.910;2023-04-27T10:09:35;49571.50;;;-146.94;35.41
56737;BME280;42618;51.226;4.910;2023-04-27T10:12:33;49593.44;;;-146.94;33.93
56737;BME280;42618;51.226;4.910;2023-04-27T10:15:16;49575.50;;;-146.94;34.63
56737;BME280;42618;51.226;4.910;2023-04-27T10:17:49;49559.56;;;-146.94;34.46
56737;BME280;42618;51.226;4.910;2023-04-27T10:20:28;49567.53;;;-146.94;34.11
56737;BME280;42618;51.226;4.910;2023-04-27T10:22:56;49587.47;;;-146.94;33.02
56737;BME280;42618;51.226;4.910;2023-04-27T10:25:26;49587.47;;;-146.94;34.01
56737;BME280;42618;51.226;4.910;2023-04-27T10:27:56;49575.50;;;-146.94;34.29
56737;BME280;42618;51.226;4.910;2023-04-27T10:30:35;49583.47;;;-146.94;34.49
56737;BME280;42618;51.226;4.910;2023-04-27T10:33:06;49551.56;;;-146.94;34.83
56737;BME280;42618;51.226;4.910;2023-04-27T10:35:40;49601.41;;;-146.94;33.97
56737;BME280;42618;51.226;4.910;2023-04-27T10:38:08;49575.50;;;-146.94;33.42
56737;BME280;42618;51.226;4.910;2023-04-27T10:40:36;49567.53;;;-146.94;34.20
56737;BME280;42618;51.226;4.910;2023-04-27T10:43:13;49551.56;;;-146.94;33.27
56737;BME280;42618;51.226;4.910;2023-04-27T10:45:41;49533.63;;;-146.94;33.25
56737;BME280;42618;51.226;4.910;2023-04-27T10:48:11;49569.50;;;-146.94;32.51
56737;BME280;42618;51.226;4.910;2023-04-27T10:50:38;49585.47;;;-146.94;32.44
56737;BME280;42618;51.226;4.910;2023-04-27T10:53:06;49547.59;;;-146.94;32.92
56737;BME280;42618;51.226;4.910;2023-04-27T10:55:34;49569.50;;;-146.94;33.36
56737;BME280;42618;51.226;4.910;2023-04-27T10:58:01;49575.50;;;-146.94;33.29
56737;BME280;42618;51.226;4.910;2023-04-27T11:00:34;49539.63;;;-146.94;32.95
56737;BME280;42618;51.226;4.910;2023-04-27T11:03:12;49549.59;;;-146.94;33.13
56737;BME280;42618;51.226;4.910;2023-04-27T11:05:41;49553.56;;;-146.94;32.46
56737;BME280;42618;51.226;4.910;2023-04-27T11:08:10;49547.59;;;-146.94;32.49
56737;BME280;42618;51.226;4.910;2023-04-27T11:10:38;49531.63;;;-146.94;32.10
56737;BME280;42618;51.226;4.910;2023-04-27T11:13:14;49547.59;;;-146.94;32.64
56737;BME280;42618;51.226;4.910;2023-04-27T11:15:49;49539.63;;;-146.94;32.92
56737;BME280;42618;51.226;4.910;2023-04-27T11:18:17;49583.47;;;-146.94;31.53
56737;BME280;42618;51.226;4.910;2023-04-27T11:20:47;49555.56;;;-146.94;32.04
56737;BME280;42618;51.226;4.910;2023-04-27T11:23:29;49533.63;;;-146.94;32.07
56737;BME280;42618;51.226;4.910;2023-04-27T11:26:19;49549.59;;;-146.94;32.28
56737;BME280;42618;51.226;4.910;2023-04-27T11:29:04;49587.47;;;-146.94;31.80
56737;BME280;42618;51.226;4.910;2023-04-27T11:31:48;49575.50;;;-146.94;31.84
56737;BME280;42618;51.226;4.910;2023-04-27T11:34:20;49593.44;;;-146.94;32.67
56737;BME280;42618;51.226;4.910;2023-04-27T11:37:04;49543.59;;;-146.94;33.08
56737;BME280;42618;51.226;4.910;2023-04-27T11:39:36;49571.50;;;-146.94;31.61
56737;BME280;42618;51.226;4.910;2023-04-27T11:42:24;49531.63;;;-146.94;32.22
56737;BME280;42618;51.226;4.910;2023-04-27T11:44:59;49509.72;;;-146.94;31.55
56737;BME280;42618;51.226;4.910;2023-04-27T11:47:28;49543.59;;;-146.94;31.12
56737;BME280;42618;51.226;4.910;2023-04-27T11:49:59;49553.56;;;-146.94;31.30
56737;BME280;42618;51.226;4.910;2023-04-27T11:54:54;49507.72;;;-146.94;30.39
56737;BME280;42618;51.226;4.910;2023-04-27T11:57:29;49551.56;;;-146.94;30.92
56737;BME280;42618;51.226;4.910;2023-04-27T11:59:58;49537.63;;;-146.94;31.09
56737;BME280;42618;51.226;4.910;2023-04-27T12:02:39;49549.59;;;-146.94;31.22
56737;BME280;42618;51.226;4.910;2023-04-27T12:05:06;49535.63;;;-146.94;31.52
56737;BME280;42618;51.226;4.910;2023-04-27T12:07:35;49563.53;;;-146.94;30.47
56737;BME280;42618;51.226;4.910;2023-04-27T12:10:02;49527.66;;;-146.94;31.40
56737;BME280;42618;51.226;4.910;2023-04-27T12:12:29;49523.66;;;-146.94;30.63
56737;BME280;42618;51.226;4.910;2023-04-27T12:14:56;49551.56;;;-146.94;29.54
56737;BME280;42618;51.226;4.910;2023-04-27T12:17:24;49557.56;;;-146.94;29.55
56737;BME280;42618;51.226;4.910;2023-04-27T12:19:50;49563.53;;;-146.94;30.10
56737;BME280;42618;51.226;4.910;2023-04-27T12:22:18;49551.56;;;-146.94;31.04
56737;BME280;42618;51.226;4.910;2023-04-27T12:24:44;49519.69;;;-146.94;30.79
56737;BME280;42618;51.226;4.910;2023-04-27T12:27:11;49531.63;;;-146.94;30.44
56737;BME280;42618;51.226;4.910;2023-04-27T12:29:38;49545.59;;;-146.94;30.50
56737;BME280;42618;51.226;4.910;2023-04-27T12:32:05;49519.69;;;-146.94;29.96
56737;BME280;42618;51.226;4.910;2023-04-27T12:34:32;49511.72;;;-146.94;30.38
56737;BME280;42618;51.226;4.910;2023-04-27T12:36:58;49523.66;;;-146.94;29.09
56737;BME280;42618;51.226;4.910;2023-04-27T12:39:25;49527.66;;;-146.94;29.20
56737;BME280;42618;51.226;4.910;2023-04-27T12:41:52;49517.69;;;-146.94;28.95
56737;BME280;42618;51.226;4.910;2023-04-27T12:44:20;49525.66;;;-146.94;28.52
56737;BME280;42618;51.226;4.910;2023-04-27T12:46:47;49495.75;;;-146.94;28.44
56737;BME280;42618;51.226;4.910;2023-04-27T12:49:14;49535.63;;;-146.94;29.51
56737;BME280;42618;51.226;4.910;2023-04-27T12:51:41;49499.75;;;-146.94;29.19
56737;BME280;42618;51.226;4.910;2023-04-27T12:54:09;49517.69;;;-146.94;28.39
56737;BME280;42618;51.226;4.910;2023-04-27T12:56:36;49491.78;;;-146.94;28.14
56737;BME280;42618;51.226;4.910;2023-04-27T12:59:04;49491.78;;;-146.94;28.84